sensor_id;sensor_type;location;lat;lon;timestamp;P1;durP1;ratioP1;P2;durP2;ratioP2
51475;SDS011;37554;50.362;7.568;2022-11-03T00:00:29;2.33;;;1.10;;
51475;SDS011;37554;50.362;7.568;2022-11-03T00:02:55;2.67;;;1.05;;
51475;SDS011;37554;50.362;7.568;2022-11-03T00:05:21;4.03;;;1.58;;
51475;SDS011;37554;50.362;7.568;2022-11-03T00:08:05;5.88;;;1.38;;
51475;SDS011;37554;50.362;7.568;2022-11-03T00:10:31;2.65;;;1.23;;
51475;SDS011;37554;50.362;7.568;2022-11-03T00:12:56;1.95;;;1.20;;
51475;SDS011;37554;50.362;7.568;2022-11-03T00:15:22;3.10;;;1.10;;
51475;SDS011;37554;50.362;7.568;2022-11-03T00:17:47;2.58;;;1.20;;
51475;SDS011;37554;50.362;7.568;2022-11-03T00:20:13;2.08;;;1.10;;
51475;SDS011;37554;50.362;7.568;2022-11-03T00:22:38;3.05;;;1.35;;
51475;SDS011;37554;50.362;7.568;2022-11-03T00:25:04;3.17;;;1.40;;
51475;SDS011;37554;50.362;7.568;2022-11-03T00:27:30;2.72;;;1.10;;
51475;SDS011;37554;50.362;7.568;2022-11-03T00:29:56;2.83;;;1.20;;
51475;SDS011;37554;50.362;7.568;2022-11-03T00:32:21;2.85;;;1.20;;
51475;SDS011;37554;50.362;7.568;2022-11-03T00:34:47;2.78;;;1.13;;
51475;SDS011;37554;50.362;7.568;2022-11-03T00:37:13;2.40;;;1.30;;
51475;SDS011;37554;50.362;7.568;2022-11-03T00:39:38;4.18;;;1.30;;
51475;SDS011;37554;50.362;7.568;2022-11-03T00:42:04;4.25;;;1.00;;
51475;SDS011;37554;50.362;7.568;2022-11-03T00:44:29;2.35;;;1.05;;
51475;SDS011;37554;50.362;7.568;2022-11-03T00:46:55;3.60;;;1.35;;
51475;SDS011;37554;50.362;7.568;2022-11-03T00:49:21;3.67;;;1.40;;
51475;SDS011;37554;50.362;7.568;2022-11-03T00:51:46;2.03;;;1.10;;
51475;SDS011;37554;50.362;7.568;2022-11-03T00:54:12;3.35;;;1.27;;
51475;SDS011;37554;50.362;7.568;2022-11-03T00:56:38;3.40;;;1.15;;
51475;SDS011;37554;50.362;7.568;2022-11-03T00:59:05;2.60;;;1.20;;
51475;SDS011;37554;50.362;7.568;2022-11-03T01:01:32;4.00;;;1.50;;
51475;SDS011;37554;50.362;7.568;2022-11-03T01:04:06;4.75;;;1.60;;
51475;SDS011;37554;50.362;7.568;2022-11-03T01:06:52;5.72;;;1.40;;
51475;SDS011;37554;50.362;7.568;2022-11-03T01:09:25;3.15;;;1.25;;
51475;SDS011;37554;50.362;7.568;2022-11-03T01:14:32;2.65;;;1.08;;
51475;SDS011;37554;50.362;7.568;2022-11-03T01:16:59;2.20;;;1.10;;
51475;SDS011;37554;50.362;7.568;2022-11-03T01:19:25;3.05;;;1.23;;
51475;SDS011;37554;50.362;7.568;2022-11-03T01:21:53;3.35;;;1.23;;
51475;SDS011;37554;50.362;7.568;2022-11-03T01:24:19;2.65;;;1.40;;
51475;SDS011;37554;50.362;7.568;2022-11-03T01:26:45;2.38;;;1.20;;
51475;SDS011;37554;50.362;7.568;2022-11-03T01:29:11;2.40;;;1.10;;
51475;SDS011;37554;50.362;7.568;2022-11-03T01:31:37;1.80;;;1.00;;
51475;SDS011;37554;50.362;7.568;2022-11-03T01:34:02;2.20;;;1.20;;
51475;SDS011;37554;50.362;7.568;2022-11-03T01:36:30;2.63;;;1.08;;
51475;SDS011;37554;50.362;7.568;2022-11-03T01:38:56;3.22;;;1.27;;
51475;SDS011;37554;50.362;7.568;2022-11-03T01:41:22;2.33;;;0.98;;
51475;SDS011;37554;50.362;7.568;2022-11-03T01:44:03;2.92;;;1.23;;
51475;SDS011;37554;50.362;7.568;2022-11-03T01:51:49;2.28;;;1.20;;
51475;SDS011;37554;50.362;7.568;2022-11-03T01:54:20;2.97;;;1.10;;
51475;SDS011;37554;50.362;7.568;2022-11-03T01:56:49;3.78;;;1.27;;
51475;SDS011;37554;50.362;7.568;2022-11-03T01:59:16;4.03;;;1.20;;
51475;SDS011;37554;50.362;7.568;2022-11-03T02:01:44;2.40;;;1.05;;
51475;SDS011;37554;50.362;7.568;2022-11-03T02:04:15;3.15;;;1.10;;
51475;SDS011;37554;50.362;7.568;2022-11-03T02:06:57;4.63;;;1.02;;
51475;SDS011;37554;50.362;7.568;2022-11-03T02:09:37;2.53;;;1.13;;
51475;SDS011;37554;50.362;7.568;2022-11-03T02:12:02;2.65;;;1.10;;
51475;SDS011;37554;50.362;7.568;2022-11-03T02:14:32;2.33;;;1.08;;
51475;SDS011;37554;50.362;7.568;2022-11-03T02:17:01;4.82;;;1.20;;
51475;SDS011;37554;50.362;7.568;2022-11-03T02:19:35;2.65;;;0.90;;
51475;SDS011;37554;50.362;7.568;2022-11-03T02:22:18;3.50;;;1.60;;
51475;SDS011;37554;50.362;7.568;2022-11-03T02:25:13;2.90;;;1.00;;
51475;SDS011;37554;50.362;7.568;2022-11-03T02:27:59;2.15;;;0.90;;
51475;SDS011;37554;50.362;7.568;2022-11-03T02:30:26;2.85;;;1.10;;
51475;SDS011;37554;50.362;7.568;2022-11-03T02:32:57;2.58;;;1.02;;
51475;SDS011;37554;50.362;7.568;2022-11-03T02:35:36;2.15;;;0.98;;
51475;SDS011;37554;50.362;7.568;2022-11-03T02:38:13;2.95;;;1.15;;
51475;SDS011;37554;50.362;7.568;2022-11-03T02:40:43;3.08;;;1.13;;
51475;SDS011;37554;50.362;7.568;2022-11-03T02:43:12;4.03;;;1.05;;
51475;SDS011;37554;50.362;7.568;2022-11-03T02:45:40;2.17;;;0.85;;
51475;SDS011;37554;50.362;7.568;2022-11-03T02:48:08;1.95;;;0.90;;
51475;SDS011;37554;50.362;7.568;2022-11-03T02:50:35;2.92;;;1.20;;
51475;SDS011;37554;50.362;7.568;2022-11-03T02:53:01;2.85;;;0.85;;
51475;SDS011;37554;50.362;7.568;2022-11-03T02:55:31;2.80;;;0.90;;
51475;SDS011;37554;50.362;7.568;2022-11-03T02:58:05;2.97;;;0.90;;
51475;SDS011;37554;50.362;7.568;2022-11-03T03:00:31;3.03;;;1.00;;
51475;SDS011;37554;50.362;7.568;2022-11-03T03:03:21;3.17;;;1.17;;
51475;SDS011;37554;50.362;7.568;2022-11-03T03:06:22;4.13;;;1.38;;
51475;SDS011;37554;50.362;7.568;2022-11-03T03:08:53;4.03;;;1.40;;
51475;SDS011;37554;50.362;7.568;2022-11-03T03:11:25;2.97;;;0.93;;
51475;SDS011;37554;50.362;7.568;2022-11-03T03:14:13;4.30;;;1.38;;
51475;SDS011;37554;50.362;7.568;2022-11-03T03:16:46;2.05;;;1.10;;
51475;SDS011;37554;50.362;7.568;2022-11-03T03:19:27;3.38;;;1.10;;
51475;SDS011;37554;50.362;7.568;2022-11-03T03:22:01;3.78;;;1.05;;
51475;SDS011;37554;50.362;7.568;2022-11-03T03:24:39;2.35;;;1.10;;
51475;SDS011;37554;50.362;7.568;2022-11-03T03:27:33;2.83;;;1.20;;
51475;SDS011;37554;50.362;7.568;2022-11-03T03:30:04;3.47;;;1.20;;
51475;SDS011;37554;50.362;7.568;2022-11-03T03:32:32;1.73;;;0.95;;
51475;SDS011;37554;50.362;7.568;2022-11-03T03:35:01;3.00;;;1.00;;
51475;SDS011;37554;50.362;7.568;2022-11-03T03:37:29;4.80;;;1.10;;
51475;SDS011;37554;50.362;7.568;2022-11-03T03:39:58;3.40;;;1.08;;
51475;SDS011;37554;50.362;7.568;2022-11-03T03:42:29;1.80;;;0.70;;
51475;SDS011;37554;50.362;7.568;2022-11-03T03:44:56;3.50;;;1.02;;
51475;SDS011;37554;50.362;7.568;2022-11-03T03:47:26;3.47;;;1.23;;
51475;SDS011;37554;50.362;7.568;2022-11-03T03:49:54;3.83;;;1.25;;
51475;SDS011;37554;50.362;7.568;2022-11-03T03:52:20;1.80;;;0.82;;
51475;SDS011;37554;50.362;7.568;2022-11-03T03:54:45;3.03;;;1.00;;
51475;SDS011;37554;50.362;7.568;2022-11-03T03:57:15;3.45;;;1.20;;
51475;SDS011;37554;50.362;7.568;2022-11-03T03:59:43;3.65;;;1.40;;
51475;SDS011;37554;50.362;7.568;2022-11-03T04:02:09;2.28;;;1.00;;
51475;SDS011;37554;50.362;7.568;2022-11-03T04:04:35;1.20;;;0.68;;
51475;SDS011;37554;50.362;7.568;2022-11-03T04:07:01;2.05;;;0.85;;
51475;SDS011;37554;50.362;7.568;2022-11-03T04:09:46;2.85;;;1.00;;
51475;SDS011;37554;50.362;7.568;2022-11-03T04:12:11;2.28;;;0.80;;
51475;SDS011;37554;50.362;7.568;2022-11-03T04:14:55;3.22;;;1.00;;
51475;SDS011;37554;50.362;7.568;2022-11-03T04:17:41;2.58;;;1.10;;
51475;SDS011;37554;50.362;7.568;2022-11-03T04:20:26;3.90;;;0.85;;
51475;SDS011;37554;50.362;7.568;2022-11-03T04:23:11;1.80;;;0.90;;
51475;SDS011;37554;50.362;7.568;2022-11-03T04:25:37;3.15;;;1.17;;
51475;SDS011;37554;50.362;7.568;2022-11-03T04:28:12;2.10;;;1.17;;
51475;SDS011;37554;50.362;7.568;2022-11-03T04:30:38;2.90;;;1.00;;
51475;SDS011;37554;50.362;7.568;2022-11-03T04:33:09;3.63;;;0.98;;
51475;SDS011;37554;50.362;7.568;2022-11-03T04:35:41;2.92;;;1.20;;
51475;SDS011;37554;50.362;7.568;2022-11-03T04:40:47;2.60;;;1.20;;
51475;SDS011;37554;50.362;7.568;2022-11-03T04:43:18;2.63;;;1.10;;
51475;SDS011;37554;50.362;7.568;2022-11-03T04:45:45;3.13;;;0.98;;
51475;SDS011;37554;50.362;7.568;2022-11-03T04:48:12;2.65;;;0.93;;
51475;SDS011;37554;50.362;7.568;2022-11-03T04:50:39;2.78;;;0.98;;
51475;SDS011;37554;50.362;7.568;2022-11-03T04:53:10;3.05;;;1.10;;
51475;SDS011;37554;50.362;7.568;2022-11-03T04:55:40;2.72;;;1.00;;
51475;SDS011;37554;50.362;7.568;2022-11-03T04:58:21;2.60;;;1.00;;
51475;SDS011;37554;50.362;7.568;2022-11-03T05:00:53;2.50;;;0.95;;
51475;SDS011;37554;50.362;7.568;2022-11-03T05:03:25;2.97;;;1.10;;
51475;SDS011;37554;50.362;7.568;2022-11-03T05:05:53;2.33;;;0.90;;
51475;SDS011;37554;50.362;7.568;2022-11-03T05:08:19;2.65;;;1.05;;
51475;SDS011;37554;50.362;7.568;2022-11-03T05:10:45;5.28;;;1.20;;
51475;SDS011;37554;50.362;7.568;2022-11-03T05:13:14;1.42;;;0.77;;
51475;SDS011;37554;50.362;7.568;2022-11-03T05:15:48;2.67;;;0.85;;
51475;SDS011;37554;50.362;7.568;2022-11-03T05:18:33;2.75;;;0.90;;
51475;SDS011;37554;50.362;7.568;2022-11-03T05:21:06;4.25;;;1.30;;
51475;SDS011;37554;50.362;7.568;2022-11-03T05:23:46;2.58;;;1.02;;
51475;SDS011;37554;50.362;7.568;2022-11-03T05:26:18;3.67;;;1.38;;
51475;SDS011;37554;50.362;7.568;2022-11-03T05:28:49;5.50;;;0.90;;
51475;SDS011;37554;50.362;7.568;2022-11-03T05:31:26;2.05;;;0.98;;
51475;SDS011;37554;50.362;7.568;2022-11-03T05:33:58;2.22;;;1.05;;
51475;SDS011;37554;50.362;7.568;2022-11-03T05:36:26;2.45;;;1.08;;
51475;SDS011;37554;50.362;7.568;2022-11-03T05:39:04;1.73;;;0.93;;
51475;SDS011;37554;50.362;7.568;2022-11-03T05:41:50;2.13;;;1.10;;
51475;SDS011;37554;50.362;7.568;2022-11-03T05:44:31;3.63;;;1.00;;
51475;SDS011;37554;50.362;7.568;2022-11-03T05:47:01;2.10;;;0.85;;
51475;SDS011;37554;50.362;7.568;2022-11-03T05:49:27;2.22;;;1.17;;
51475;SDS011;37554;50.362;7.568;2022-11-03T05:51:54;3.28;;;0.95;;
51475;SDS011;37554;50.362;7.568;2022-11-03T05:54:21;2.20;;;0.70;;
51475;SDS011;37554;50.362;7.568;2022-11-03T05:56:49;2.28;;;1.05;;
51475;SDS011;37554;50.362;7.568;2022-11-03T05:59:16;3.08;;;1.00;;
51475;SDS011;37554;50.362;7.568;2022-11-03T06:01:46;2.30;;;0.80;;
51475;SDS011;37554;50.362;7.568;2022-11-03T06:04:25;4.32;;;1.20;;
51475;SDS011;37554;50.362;7.568;2022-11-03T06:07:00;2.08;;;1.00;;
51475;SDS011;37554;50.362;7.568;2022-11-03T06:09:40;2.83;;;0.90;;
51475;SDS011;37554;50.362;7.568;2022-11-03T06:12:06;2.00;;;0.93;;
51475;SDS011;37554;50.362;7.568;2022-11-03T06:14:38;1.57;;;0.80;;
51475;SDS011;37554;50.362;7.568;2022-11-03T06:17:05;3.90;;;0.82;;
51475;SDS011;37554;50.362;7.568;2022-11-03T06:19:40;2.03;;;0.88;;
51475;SDS011;37554;50.362;7.568;2022-11-03T06:22:19;1.70;;;0.70;;
51475;SDS011;37554;50.362;7.568;2022-11-03T06:24:53;3.00;;;0.70;;
51475;SDS011;37554;50.362;7.568;2022-11-03T06:27:25;2.50;;;1.00;;
51475;SDS011;37554;50.362;7.568;2022-11-03T06:29:58;2.75;;;0.95;;
51475;SDS011;37554;50.362;7.568;2022-11-03T06:32:26;2.17;;;0.80;;
51475;SDS011;37554;50.362;7.568;2022-11-03T06:34:53;2.28;;;0.85;;
51475;SDS011;37554;50.362;7.568;2022-11-03T06:37:30;2.60;;;0.88;;
51475;SDS011;37554;50.362;7.568;2022-11-03T06:40:42;1.88;;;1.02;;
51475;SDS011;37554;50.362;7.568;2022-11-03T06:42:42;2.55;;;1.10;;
51475;SDS011;37554;50.362;7.568;2022-11-03T06:45:21;2.35;;;1.13;;
51475;SDS011;37554;50.362;7.568;2022-11-03T06:47:49;3.58;;;1.35;;
51475;SDS011;37554;50.362;7.568;2022-11-03T06:50:19;2.85;;;1.10;;
51475;SDS011;37554;50.362;7.568;2022-11-03T06:52:49;5.38;;;1.15;;
51475;SDS011;37554;50.362;7.568;2022-11-03T06:55:25;2.92;;;1.10;;
51475;SDS011;37554;50.362;7.568;2022-11-03T06:58:01;4.20;;;1.35;;
51475;SDS011;37554;50.362;7.568;2022-11-03T07:00:43;4.28;;;1.15;;
51475;SDS011;37554;50.362;7.568;2022-11-03T07:03:17;5.82;;;1.42;;
51475;SDS011;37554;50.362;7.568;2022-11-03T07:05:57;5.68;;;1.75;;
51475;SDS011;37554;50.362;7.568;2022-11-03T07:08:41;4.38;;;1.33;;
51475;SDS011;37554;50.362;7.568;2022-11-03T07:11:19;5.05;;;1.50;;
51475;SDS011;37554;50.362;7.568;2022-11-03T07:13:46;6.60;;;1.42;;
51475;SDS011;37554;50.362;7.568;2022-11-03T07:16:22;3.60;;;1.58;;
51475;SDS011;37554;50.362;7.568;2022-11-03T07:19:05;5.07;;;1.60;;
51475;SDS011;37554;50.362;7.568;2022-11-03T07:21:59;3.50;;;1.33;;
51475;SDS011;37554;50.362;7.568;2022-11-03T07:24:44;5.45;;;1.70;;
51475;SDS011;37554;50.362;7.568;2022-11-03T07:29:59;5.60;;;1.98;;
51475;SDS011;37554;50.362;7.568;2022-11-03T07:32:43;4.28;;;1.65;;
51475;SDS011;37554;50.362;7.568;2022-11-03T07:37:46;5.38;;;1.90;;
51475;SDS011;37554;50.362;7.568;2022-11-03T07:40:15;4.65;;;1.90;;
51475;SDS011;37554;50.362;7.568;2022-11-03T07:42:45;5.53;;;2.00;;
51475;SDS011;37554;50.362;7.568;2022-11-03T07:47:55;5.05;;;1.67;;
51475;SDS011;37554;50.362;7.568;2022-11-03T07:50:21;4.00;;;1.67;;
51475;SDS011;37554;50.362;7.568;2022-11-03T07:52:46;6.45;;;1.88;;
51475;SDS011;37554;50.362;7.568;2022-11-03T07:55:12;6.07;;;1.88;;
51475;SDS011;37554;50.362;7.568;2022-11-03T07:57:39;4.82;;;1.40;;
51475;SDS011;37554;50.362;7.568;2022-11-03T08:00:06;4.95;;;1.55;;
51475;SDS011;37554;50.362;7.568;2022-11-03T08:05:03;4.80;;;1.65;;
51475;SDS011;37554;50.362;7.568;2022-11-03T08:07:29;3.40;;;1.90;;
51475;SDS011;37554;50.362;7.568;2022-11-03T08:09:55;3.08;;;1.35;;
51475;SDS011;37554;50.362;7.568;2022-11-03T08:12:21;4.60;;;1.63;;
51475;SDS011;37554;50.362;7.568;2022-11-03T08:14:47;3.50;;;1.75;;
51475;SDS011;37554;50.362;7.568;2022-11-03T08:17:12;4.57;;;1.50;;
51475;SDS011;37554;50.362;7.568;2022-11-03T08:19:38;6.63;;;1.70;;
51475;SDS011;37554;50.362;7.568;2022-11-03T08:22:04;7.32;;;1.77;;
51475;SDS011;37554;50.362;7.568;2022-11-03T08:24:30;6.20;;;1.90;;
51475;SDS011;37554;50.362;7.568;2022-11-03T08:26:55;8.88;;;2.08;;
51475;SDS011;37554;50.362;7.568;2022-11-03T08:29:21;5.60;;;1.65;;
51475;SDS011;37554;50.362;7.568;2022-11-03T08:31:48;7.30;;;1.70;;
51475;SDS011;37554;50.362;7.568;2022-11-03T08:34:14;6.63;;;1.85;;
51475;SDS011;37554;50.362;7.568;2022-11-03T08:36:40;6.78;;;1.67;;
51475;SDS011;37554;50.362;7.568;2022-11-03T08:39:06;13.18;;;1.92;;
51475;SDS011;37554;50.362;7.568;2022-11-03T08:41:31;7.60;;;1.75;;
51475;SDS011;37554;50.362;7.568;2022-11-03T08:43:57;5.03;;;1.90;;
51475;SDS011;37554;50.362;7.568;2022-11-03T08:46:22;4.55;;;1.85;;
51475;SDS011;37554;50.362;7.568;2022-11-03T08:48:48;5.43;;;1.65;;
51475;SDS011;37554;50.362;7.568;2022-11-03T08:51:14;6.90;;;2.03;;
51475;SDS011;37554;50.362;7.568;2022-11-03T08:53:40;5.55;;;1.83;;
51475;SDS011;37554;50.362;7.568;2022-11-03T08:56:07;7.45;;;1.88;;
51475;SDS011;37554;50.362;7.568;2022-11-03T08:58:32;4.13;;;1.58;;
51475;SDS011;37554;50.362;7.568;2022-11-03T09:00:58;4.50;;;1.50;;
51475;SDS011;37554;50.362;7.568;2022-11-03T09:03:24;4.15;;;1.60;;
51475;SDS011;37554;50.362;7.568;2022-11-03T09:05:49;5.43;;;1.27;;
51475;SDS011;37554;50.362;7.568;2022-11-03T09:08:15;6.72;;;1.13;;
51475;SDS011;37554;50.362;7.568;2022-11-03T09:10:41;4.28;;;1.83;;
51475;SDS011;37554;50.362;7.568;2022-11-03T09:13:06;7.95;;;1.40;;
51475;SDS011;37554;50.362;7.568;2022-11-03T09:15:32;5.07;;;1.10;;
51475;SDS011;37554;50.362;7.568;2022-11-03T09:17:58;4.85;;;1.48;;
51475;SDS011;37554;50.362;7.568;2022-11-03T09:20:24;3.28;;;1.50;;
51475;SDS011;37554;50.362;7.568;2022-11-03T09:22:50;2.90;;;1.08;;
51475;SDS011;37554;50.362;7.568;2022-11-03T09:25:16;4.30;;;1.42;;
51475;SDS011;37554;50.362;7.568;2022-11-03T09:27:42;3.70;;;1.27;;
51475;SDS011;37554;50.362;7.568;2022-11-03T09:30:08;3.08;;;1.27;;
51475;SDS011;37554;50.362;7.568;2022-11-03T09:32:34;6.65;;;1.17;;
51475;SDS011;37554;50.362;7.568;2022-11-03T09:34:59;5.25;;;1.50;;
51475;SDS011;37554;50.362;7.568;2022-11-03T09:37:25;4.70;;;1.60;;
51475;SDS011;37554;50.362;7.568;2022-11-03T09:39:50;3.70;;;1.45;;
51475;SDS011;37554;50.362;7.568;2022-11-03T09:42:16;3.38;;;1.25;;
51475;SDS011;37554;50.362;7.568;2022-11-03T09:44:43;3.00;;;1.10;;
51475;SDS011;37554;50.362;7.568;2022-11-03T09:47:11;2.70;;;1.38;;
51475;SDS011;37554;50.362;7.568;2022-11-03T09:49:47;4.05;;;1.55;;
51475;SDS011;37554;50.362;7.568;2022-11-03T09:52:14;1.95;;;0.90;;
51475;SDS011;37554;50.362;7.568;2022-11-03T09:54:44;1.80;;;1.10;;
51475;SDS011;37554;50.362;7.568;2022-11-03T09:57:11;2.88;;;1.23;;
51475;SDS011;37554;50.362;7.568;2022-11-03T09:59:39;5.43;;;1.10;;
51475;SDS011;37554;50.362;7.568;2022-11-03T10:02:19;4.00;;;1.50;;
51475;SDS011;37554;50.362;7.568;2022-11-03T10:04:56;2.25;;;1.10;;
51475;SDS011;37554;50.362;7.568;2022-11-03T10:07:27;2.13;;;0.98;;
51475;SDS011;37554;50.362;7.568;2022-11-03T10:09:54;1.83;;;0.90;;
51475;SDS011;37554;50.362;7.568;2022-11-03T10:12:22;3.47;;;1.00;;
51475;SDS011;37554;50.362;7.568;2022-11-03T10:14:49;3.88;;;1.20;;
51475;SDS011;37554;50.362;7.568;2022-11-03T10:17:19;3.03;;;1.05;;
51475;SDS011;37554;50.362;7.568;2022-11-03T10:19:49;2.92;;;1.17;;
51475;SDS011;37554;50.362;7.568;2022-11-03T10:22:17;2.70;;;1.02;;
51475;SDS011;37554;50.362;7.568;2022-11-03T10:24:45;3.08;;;1.00;;
51475;SDS011;37554;50.362;7.568;2022-11-03T10:27:21;3.28;;;1.05;;
51475;SDS011;37554;50.362;7.568;2022-11-03T10:30:05;2.88;;;0.90;;
51475;SDS011;37554;50.362;7.568;2022-11-03T10:32:34;2.33;;;0.90;;
51475;SDS011;37554;50.362;7.568;2022-11-03T10:35:00;2.63;;;0.95;;
51475;SDS011;37554;50.362;7.568;2022-11-03T10:37:26;1.55;;;0.80;;
51475;SDS011;37554;50.362;7.568;2022-11-03T10:39:53;3.63;;;1.08;;
51475;SDS011;37554;50.362;7.568;2022-11-03T10:42:21;1.33;;;0.88;;
51475;SDS011;37554;50.362;7.568;2022-11-03T10:44:54;2.47;;;1.10;;
51475;SDS011;37554;50.362;7.568;2022-11-03T10:47:43;1.38;;;0.80;;
51475;SDS011;37554;50.362;7.568;2022-11-03T10:50:25;1.50;;;0.90;;
51475;SDS011;37554;50.362;7.568;2022-11-03T10:52:51;2.13;;;0.77;;
51475;SDS011;37554;50.362;7.568;2022-11-03T10:55:18;1.67;;;1.02;;
51475;SDS011;37554;50.362;7.568;2022-11-03T10:57:45;3.20;;;0.90;;
51475;SDS011;37554;50.362;7.568;2022-11-03T11:00:12;1.48;;;0.60;;
51475;SDS011;37554;50.362;7.568;2022-11-03T11:02:39;2.17;;;0.80;;
51475;SDS011;37554;50.362;7.568;2022-11-03T11:05:14;1.58;;;0.70;;
51475;SDS011;37554;50.362;7.568;2022-11-03T11:07:44;3.58;;;1.20;;
51475;SDS011;37554;50.362;7.568;2022-11-03T11:10:12;3.80;;;0.90;;
51475;SDS011;37554;50.362;7.568;2022-11-03T11:12:38;1.98;;;1.15;;
51475;SDS011;37554;50.362;7.568;2022-11-03T11:15:33;2.55;;;0.95;;
51475;SDS011;37554;50.362;7.568;2022-11-03T11:18:08;1.27;;;0.80;;
51475;SDS011;37554;50.362;7.568;2022-11-03T11:29:35;2.83;;;1.02;;
51475;SDS011;37554;50.362;7.568;2022-11-03T11:31:32;2.78;;;1.10;;
51475;SDS011;37554;50.362;7.568;2022-11-03T11:36:34;1.75;;;0.80;;
51475;SDS011;37554;50.362;7.568;2022-11-03T11:39:10;2.03;;;1.00;;
51475;SDS011;37554;50.362;7.568;2022-11-03T11:47:26;1.50;;;0.90;;
51475;SDS011;37554;50.362;7.568;2022-11-03T11:52:34;2.53;;;0.80;;
51475;SDS011;37554;50.362;7.568;2022-11-03T11:55:05;4.03;;;0.93;;
51475;SDS011;37554;50.362;7.568;2022-11-03T11:57:50;1.50;;;0.85;;
51475;SDS011;37554;50.362;7.568;2022-11-03T12:00:24;1.80;;;0.90;;
51475;SDS011;37554;50.362;7.568;2022-11-03T12:02:54;2.60;;;0.98;;
51475;SDS011;37554;50.362;7.568;2022-11-03T12:05:22;2.50;;;0.80;;
51475;SDS011;37554;50.362;7.568;2022-11-03T12:07:50;1.88;;;0.80;;
51475;SDS011;37554;50.362;7.568;2022-11-03T12:10:16;2.83;;;0.80;;
51475;SDS011;37554;50.362;7.568;2022-11-03T12:12:44;2.40;;;1.00;;
51475;SDS011;37554;50.362;7.568;2022-11-03T12:18:30;1.73;;;0.80;;
51475;SDS011;37554;50.362;7.568;2022-11-03T12:21:04;1.55;;;0.70;;
51475;SDS011;37554;50.362;7.568;2022-11-03T12:23:43;1.70;;;1.00;;
51475;SDS011;37554;50.362;7.568;2022-11-03T12:26:17;3.00;;;1.30;;
51475;SDS011;37554;50.362;7.568;2022-11-03T12:28:49;2.85;;;1.20;;
51475;SDS011;37554;50.362;7.568;2022-11-03T12:31:15;2.42;;;1.20;;
51475;SDS011;37554;50.362;7.568;2022-11-03T12:33:40;4.25;;;1.40;;
51475;SDS011;37554;50.362;7.568;2022-11-03T12:36:06;2.50;;;1.50;;
51475;SDS011;37554;50.362;7.568;2022-11-03T12:38:32;2.15;;;1.40;;
51475;SDS011;37554;50.362;7.568;2022-11-03T12:40:58;2.67;;;1.50;;
51475;SDS011;37554;50.362;7.568;2022-11-03T12:43:43;2.90;;;1.30;;
51475;SDS011;37554;50.362;7.568;2022-11-03T12:46:09;2.75;;;1.42;;
51475;SDS011;37554;50.362;7.568;2022-11-03T12:48:35;3.78;;;1.55;;
51475;SDS011;37554;50.362;7.568;2022-11-03T12:51:01;2.35;;;1.40;;
51475;SDS011;37554;50.362;7.568;2022-11-03T12:53:27;2.53;;;1.48;;
51475;SDS011;37554;50.362;7.568;2022-11-03T12:55:53;2.65;;;1.25;;
51475;SDS011;37554;50.362;7.568;2022-11-03T12:58:18;4.53;;;1.52;;
51475;SDS011;37554;50.362;7.568;2022-11-03T13:00:44;2.63;;;1.77;;
51475;SDS011;37554;50.362;7.568;2022-11-03T13:03:10;2.20;;;1.50;;
51475;SDS011;37554;50.362;7.568;2022-11-03T13:05:35;4.45;;;1.55;;
51475;SDS011;37554;50.362;7.568;2022-11-03T13:08:01;2.05;;;1.40;;
51475;SDS011;37554;50.362;7.568;2022-11-03T13:10:26;2.08;;;1.40;;
51475;SDS011;37554;50.362;7.568;2022-11-03T13:12:52;3.15;;;1.40;;
51475;SDS011;37554;50.362;7.568;2022-11-03T13:15:17;3.72;;;2.08;;
51475;SDS011;37554;50.362;7.568;2022-11-03T13:17:43;3.78;;;2.05;;
51475;SDS011;37554;50.362;7.568;2022-11-03T13:20:09;5.13;;;1.92;;
51475;SDS011;37554;50.362;7.568;2022-11-03T13:22:35;8.30;;;1.90;;
51475;SDS011;37554;50.362;7.568;2022-11-03T13:25:00;12.73;;;2.22;;
51475;SDS011;37554;50.362;7.568;2022-11-03T13:27:26;6.47;;;2.03;;
51475;SDS011;37554;50.362;7.568;2022-11-03T13:29:52;3.90;;;2.03;;
51475;SDS011;37554;50.362;7.568;2022-11-03T13:32:20;5.40;;;2.45;;
51475;SDS011;37554;50.362;7.568;2022-11-03T13:34:46;7.20;;;2.25;;
51475;SDS011;37554;50.362;7.568;2022-11-03T13:37:11;6.13;;;2.08;;
51475;SDS011;37554;50.362;7.568;2022-11-03T13:39:37;6.00;;;2.20;;
51475;SDS011;37554;50.362;7.568;2022-11-03T13:42:02;5.25;;;2.25;;
51475;SDS011;37554;50.362;7.568;2022-11-03T13:44:28;5.63;;;2.05;;
51475;SDS011;37554;50.362;7.568;2022-11-03T13:46:53;4.20;;;2.35;;
51475;SDS011;37554;50.362;7.568;2022-11-03T13:49:19;3.47;;;1.65;;
51475;SDS011;37554;50.362;7.568;2022-11-03T13:51:46;6.55;;;1.90;;
51475;SDS011;37554;50.362;7.568;2022-11-03T13:54:11;5.38;;;2.33;;
51475;SDS011;37554;50.362;7.568;2022-11-03T13:56:37;3.25;;;1.95;;
51475;SDS011;37554;50.362;7.568;2022-11-03T13:59:03;5.07;;;2.10;;
51475;SDS011;37554;50.362;7.568;2022-11-03T14:01:28;4.97;;;1.90;;
51475;SDS011;37554;50.362;7.568;2022-11-03T14:03:54;2.83;;;1.70;;
51475;SDS011;37554;50.362;7.568;2022-11-03T14:06:19;3.90;;;1.80;;
51475;SDS011;37554;50.362;7.568;2022-11-03T14:08:45;2.85;;;1.65;;
51475;SDS011;37554;50.362;7.568;2022-11-03T14:11:10;4.05;;;1.90;;
51475;SDS011;37554;50.362;7.568;2022-11-03T14:13:55;3.20;;;1.75;;
51475;SDS011;37554;50.362;7.568;2022-11-03T14:16:20;3.10;;;1.92;;
51475;SDS011;37554;50.362;7.568;2022-11-03T14:18:46;4.63;;;1.98;;
51475;SDS011;37554;50.362;7.568;2022-11-03T14:21:11;5.18;;;2.20;;
51475;SDS011;37554;50.362;7.568;2022-11-03T14:23:37;6.45;;;1.63;;
51475;SDS011;37554;50.362;7.568;2022-11-03T14:26:02;9.68;;;2.17;;
51475;SDS011;37554;50.362;7.568;2022-11-03T14:28:28;7.03;;;2.50;;
51475;SDS011;37554;50.362;7.568;2022-11-03T14:30:54;6.07;;;2.13;;
51475;SDS011;37554;50.362;7.568;2022-11-03T14:33:23;5.72;;;2.38;;
51475;SDS011;37554;50.362;7.568;2022-11-03T14:35:50;6.38;;;2.40;;
51475;SDS011;37554;50.362;7.568;2022-11-03T14:38:15;10.70;;;2.92;;
51475;SDS011;37554;50.362;7.568;2022-11-03T14:40:41;7.60;;;2.78;;
51475;SDS011;37554;50.362;7.568;2022-11-03T14:43:26;9.13;;;3.10;;
51475;SDS011;37554;50.362;7.568;2022-11-03T14:45:52;10.50;;;2.92;;
51475;SDS011;37554;50.362;7.568;2022-11-03T14:48:17;10.02;;;2.78;;
51475;SDS011;37554;50.362;7.568;2022-11-03T14:50:43;12.32;;;3.58;;
51475;SDS011;37554;50.362;7.568;2022-11-03T14:53:08;9.73;;;3.78;;
51475;SDS011;37554;50.362;7.568;2022-11-03T14:55:34;9.40;;;3.35;;
51475;SDS011;37554;50.362;7.568;2022-11-03T14:58:00;8.52;;;3.17;;
51475;SDS011;37554;50.362;7.568;2022-11-03T15:00:25;10.00;;;3.80;;
51475;SDS011;37554;50.362;7.568;2022-11-03T15:02:51;6.40;;;3.20;;
51475;SDS011;37554;50.362;7.568;2022-11-03T15:05:17;9.32;;;3.40;;
51475;SDS011;37554;50.362;7.568;2022-11-03T15:08:01;9.07;;;3.63;;
51475;SDS011;37554;50.362;7.568;2022-11-03T15:10:27;9.82;;;3.63;;
51475;SDS011;37554;50.362;7.568;2022-11-03T15:12:53;9.38;;;4.00;;
51475;SDS011;37554;50.362;7.568;2022-11-03T15:15:18;7.47;;;3.45;;
51475;SDS011;37554;50.362;7.568;2022-11-03T15:17:44;13.07;;;3.53;;
51475;SDS011;37554;50.362;7.568;2022-11-03T15:20:09;8.93;;;3.10;;
51475;SDS011;37554;50.362;7.568;2022-11-03T15:22:35;7.63;;;3.70;;
51475;SDS011;37554;50.362;7.568;2022-11-03T15:25:01;7.07;;;2.90;;
51475;SDS011;37554;50.362;7.568;2022-11-03T15:27:26;7.70;;;2.97;;
51475;SDS011;37554;50.362;7.568;2022-11-03T15:29:52;4.82;;;3.10;;
51475;SDS011;37554;50.362;7.568;2022-11-03T15:32:17;7.15;;;3.15;;
51475;SDS011;37554;50.362;7.568;2022-11-03T15:34:43;4.82;;;2.50;;
51475;SDS011;37554;50.362;7.568;2022-11-03T15:37:09;7.70;;;2.60;;
51475;SDS011;37554;50.362;7.568;2022-11-03T15:39:34;6.57;;;2.85;;
51475;SDS011;37554;50.362;7.568;2022-11-03T15:42:00;5.80;;;2.78;;
51475;SDS011;37554;50.362;7.568;2022-11-03T15:44:25;5.78;;;2.83;;
51475;SDS011;37554;50.362;7.568;2022-11-03T15:46:51;6.03;;;2.60;;